Vittoria — 3FJY5 — position and weather

sailwx.info

Track history (hours):
 
Tides and Currents Weather Stations Pressure Air Temp Water Temp Dewpoint Dewpoint Depression Visibility Wind Speed Wind Dir Waves Ship Positions

Vittoria

Last reported at 2017-Sep-15 06:04 UTC. Time now 2017-Sep-25 11:30 UTC.
Position N 34°53' W 126°33'.
Warning: this ship's position is 10 days out of date.

Length 211 m; draft 14.5 m.

Type: Cargo ship. MMSI: 354314000.

Date/timePositionNaut miles runAvg speedWind from/ knotsBaromVisibWave heightAir tempDewpointWater temp
2017-Sep-15 06:04N 34°53' W 126°33'312.5
2017-Sep-15 05:51N 34°52' W 126°30'412.6
2017-Sep-15 05:30N 34°51' W 126°26'912.4
2017-Sep-15 04:47N 34°47' W 126°15'412.4
2017-Sep-15 04:28N 34°46' W 126°11'612.4
2017-Sep-15 03:57N 34°43' W 126°04'612.4
2017-Sep-15 03:27N 34°41' W 125°57'1712.3
2017-Sep-15 02:03N 34°34' W 125°38'112.2
2017-Sep-15 02:00N 34°34' W 125°37'612.1
2017-Sep-15 01:30N 34°31' W 125°30'611.4
2017-Sep-15 01:00N 34°29' W 125°24'510.1
2017-Sep-15 00:30N 34°27' W 125°18'510.4
2017-Sep-15 00:00N 34°27' W 125°12'510.7
2017-Sep-14 23:30N 34°27' W 125°05'510.9
2017-Sep-14 23:00N 34°28' W 124°59'510.9
2017-Sep-14 22:30N 34°28' W 124°52'510.9
2017-Sep-14 22:00N 34°28' W 124°46'611.1
2017-Sep-14 21:29N 34°27' W 124°39'511.0
2017-Sep-14 21:00N 34°27' W 124°32'611.0
2017-Sep-14 20:27N 34°27' W 124°25'711.1
2017-Sep-14 19:51N 34°28' W 124°17'411.2
2017-Sep-14 19:30N 34°28' W 124°12'611.4
2017-Sep-14 18:56N 34°28' W 124°04'511.5
2017-Sep-14 18:30N 34°27' W 123°58'1111.4
2017-Sep-14 17:33N 34°27' W 123°45'111.3
2017-Sep-14 17:28N 34°27' W 123°44'511.2
2017-Sep-14 16:59N 34°27' W 123°37'510.8
2017-Sep-14 16:30N 34°28' W 123°31'610.8
2017-Sep-14 15:55N 34°28' W 123°23'410.9
2017-Sep-14 15:30N 34°28' W 123°18'610.7
2017-Sep-14 14:58N 34°28' W 123°11'510.7
2017-Sep-14 14:28N 34°28' W 123°05'510.7
2017-Sep-14 14:00N 34°28' W 122°58'510.4
2017-Sep-14 13:30N 34°28' W 122°52'710.7
2017-Sep-14 12:52N 34°27' W 122°44'410.5
2017-Sep-14 12:29N 34°27' W 122°39'510.4
2017-Sep-14 11:59N 34°27' W 122°33'510.2
2017-Sep-14 11:30N 34°28' W 122°27'610.3
2017-Sep-14 10:53N 34°28' W 122°19'410.1
2017-Sep-14 10:30N 34°27' W 122°14'510.2
2017-Sep-14 09:59N 34°27' W 122°08'1210.4
2017-Sep-14 08:51N 34°27' W 121°54'410.9
2017-Sep-14 08:30N 34°27' W 121°49'510.7
2017-Sep-14 08:00N 34°27' W 121°43'510.5
2017-Sep-14 07:30N 34°27' W 121°36'510.4
2017-Sep-14 07:00N 34°27' W 121°30'510.5
2017-Sep-14 06:30N 34°26' W 121°24'510.5
2017-Sep-14 06:00N 34°26' W 121°17'610.7
2017-Sep-14 05:29N 34°26' W 121°11'510.7
2017-Sep-14 04:59N 34°26' W 121°04'510.6
2017-Sep-14 04:30N 34°26' W 120°58'510.4
2017-Sep-14 04:00N 34°26' W 120°52'510.7
2017-Sep-14 03:30N 34°25' W 120°45'510.6
2017-Sep-14 03:00N 34°23' W 120°39'610.4
2017-Sep-14 02:28N 34°22' W 120°33'510.6
2017-Sep-14 01:57N 34°20' W 120°26'510.6
2017-Sep-14 01:30N 34°19' W 120°21'510.7
2017-Sep-14 01:00N 34°18' W 120°14'510.7
2017-Sep-14 00:30N 34°16' W 120°08'510.3
2017-Sep-13 23:59N 34°15' W 120°02'510.2
2017-Sep-13 23:30N 34°14' W 119°56'510.5
2017-Sep-13 23:00N 34°12' W 119°50'611.0
2017-Sep-13 22:30N 34°11' W 119°44'510.8
2017-Sep-13 22:00N 34°09' W 119°37'510.7
2017-Sep-13 21:30N 34°08' W 119°31'611.0
2017-Sep-13 21:00N 34°06' W 119°25'510.5
2017-Sep-13 20:29N 34°05' W 119°18'510.7
2017-Sep-13 20:00N 34°03' W 119°12'510.5
2017-Sep-13 19:30N 34°00' W 119°07'510.5
2017-Sep-13 19:00N 33°58' W 119°02'510.7
2017-Sep-13 18:30N 33°55' W 118°56'510.6
2017-Sep-13 18:00N 33°53' W 118°50'510.7
2017-Sep-13 17:30N 33°50' W 118°45'510.7
2017-Sep-13 17:00N 33°47' W 118°39'510.7
2017-Sep-13 16:30N 33°45' W 118°34'510.8
2017-Sep-13 16:00N 33°42' W 118°28'510.5
2017-Sep-13 15:30N 33°39' W 118°23'5 9.6
2017-Sep-13 15:00N 33°38' W 118°17'4 8.7
2017-Sep-13 14:30N 33°39' W 118°12'4 8.1
2017-Sep-13 14:00N 33°44' W 118°11'2 3.4
2017-Sep-13 13:30N 33°45' W 118°12'0 0.0
2017-Sep-13 12:45N 33°45' W 118°12'0 0.0
2017-Sep-13 12:27N 33°45' W 118°12'0 0.0
2017-Sep-13 11:51N 33°45' W 118°12'0 0.0
2017-Sep-13 11:21N 33°45' W 118°12'0 0.0
2017-Sep-13 10:57N 33°45' W 118°12'0 0.0
2017-Sep-13 10:27N 33°45' W 118°12'0 0.0
2017-Sep-13 09:57N 33°45' W 118°12'0 0.0
2017-Sep-13 09:27N 33°45' W 118°12'0 0.0
2017-Sep-13 08:57N 33°45' W 118°12'0 0.0
2017-Sep-13 08:27N 33°45' W 118°12'0 0.0
2017-Sep-13 07:57N 33°45' W 118°12'0 0.0
2017-Sep-13 07:15N 33°45' W 118°12'0 0.0
2017-Sep-13 06:57N 33°45' W 118°12'0 0.0
2017-Sep-13 06:30N 33°45' W 118°12'0 0.0
2017-Sep-13 05:27N 33°45' W 118°12'0 0.0
2017-Sep-13 04:57N 33°45' W 118°12'0 0.0
2017-Sep-13 04:27N 33°45' W 118°12'0 0.0
2017-Sep-13 03:57N 33°45' W 118°12'0 0.0
2017-Sep-13 03:27N 33°45' W 118°12'0 0.0
2017-Sep-13 02:57N 33°45' W 118°12'0 0.0
2017-Sep-13 02:30N 33°45' W 118°12'0 0.0
2017-Sep-13 02:00N 33°45' W 118°12'0 0.0
2017-Sep-13 01:30N 33°45' W 118°12'0 0.0
2017-Sep-13 00:57N 33°45' W 118°12'0 0.0
2017-Sep-13 00:30N 33°45' W 118°12'0 0.0
2017-Sep-13 00:00N 33°45' W 118°12'0 0.0
2017-Sep-12 23:30N 33°45' W 118°12'0 0.0
2017-Sep-12 23:00N 33°45' W 118°12'0 0.0
2017-Sep-12 22:27N 33°45' W 118°12'0 0.0
2017-Sep-12 22:00N 33°45' W 118°12'0 0.0
2017-Sep-12 21:30N 33°45' W 118°12'0 0.0
2017-Sep-12 21:00N 33°45' W 118°12'0 0.0
2017-Sep-12 20:30N 33°45' W 118°12'0 0.0
2017-Sep-12 19:57N 33°45' W 118°12'0 0.0
2017-Sep-12 19:30N 33°45' W 118°12'0 0.0
2017-Sep-12 19:00N 33°45' W 118°12'0 0.0
2017-Sep-12 18:27N 33°45' W 118°12'0 0.0
2017-Sep-12 17:57N 33°45' W 118°12'0 0.0
2017-Sep-12 17:27N 33°45' W 118°12'0 0.0
2017-Sep-12 16:57N 33°45' W 118°12'0 0.0
2017-Sep-12 16:30N 33°45' W 118°12'0 0.0
2017-Sep-12 15:57N 33°45' W 118°12'0 0.0
2017-Sep-12 15:27N 33°45' W 118°12'0 0.0
2017-Sep-12 14:57N 33°45' W 118°12'0 0.0
2017-Sep-12 14:27N 33°45' W 118°12'0 0.0
2017-Sep-12 13:57N 33°45' W 118°12'0 0.0
2017-Sep-12 13:30N 33°45' W 118°12'0 0.0
2017-Sep-12 12:57N 33°45' W 118°12'0 0.0
2017-Sep-12 12:30N 33°45' W 118°12'0 0.0
2017-Sep-12 12:00N 33°45' W 118°12'0 0.0
2017-Sep-12 11:27N 33°45' W 118°12'0 0.0
2017-Sep-12 10:57N 33°45' W 118°12'0 0.0
2017-Sep-12 10:30N 33°45' W 118°12'0 0.0
2017-Sep-12 09:57N 33°45' W 118°12'0 0.0
2017-Sep-12 09:30N 33°45' W 118°12'0 0.0
2017-Sep-12 09:00N 33°45' W 118°12'0 0.0
2017-Sep-12 08:27N 33°45' W 118°12'0 0.0
2017-Sep-12 08:00N 33°45' W 118°12'0 0.0
2017-Sep-12 07:30N 33°45' W 118°12'0 0.0
2017-Sep-12 07:00N 33°45' W 118°12'0 0.0
2017-Sep-12 06:30N 33°45' W 118°12'0 0.0
2017-Sep-12 06:00N 33°45' W 118°12'0 0.0
2017-Sep-12 05:30N 33°45' W 118°12'0 0.0
2017-Sep-12 05:00N 33°45' W 118°12'0 0.0
2017-Sep-12 04:30N 33°45' W 118°12'0 0.0
2017-Sep-12 04:00N 33°45' W 118°12'0 0.0
2017-Sep-12 03:30N 33°45' W 118°12'0 0.0
2017-Sep-12 03:00N 33°45' W 118°12'0 0.0
2017-Sep-12 02:30N 33°45' W 118°12'0 0.0
2017-Sep-12 02:00N 33°45' W 118°12'0 0.0
2017-Sep-12 01:30N 33°45' W 118°12'0 0.0
2017-Sep-12 00:57N 33°45' W 118°12'0 0.0
2017-Sep-12 00:30N 33°45' W 118°12'0 0.0
2017-Sep-12 00:00N 33°45' W 118°12'0 0.0
2017-Sep-11 23:30N 33°45' W 118°12'0 0.0
2017-Sep-11 23:00N 33°45' W 118°12'0 0.0
2017-Sep-11 22:30N 33°45' W 118°12'0 0.0
2017-Sep-11 22:00N 33°45' W 118°12'0 0.0
2017-Sep-11 21:30N 33°45' W 118°12'0 0.0
2017-Sep-11 21:00N 33°45' W 118°12'0 0.0
2017-Sep-11 20:30N 33°45' W 118°12'0 0.0
2017-Sep-11 20:00N 33°45' W 118°12'0 0.0
2017-Sep-11 19:30N 33°45' W 118°12'0 0.0
2017-Sep-11 19:00N 33°45' W 118°12'0 0.0
2017-Sep-11 18:30N 33°45' W 118°12'0 0.0
2017-Sep-11 18:00N 33°45' W 118°12'0 0.0
2017-Sep-11 17:30N 33°45' W 118°12'0 0.0
2017-Sep-11 16:51N 33°45' W 118°12'0 0.0
2017-Sep-11 16:30N 33°45' W 118°12'0 0.0
2017-Sep-11 16:00N 33°45' W 118°12'0 0.0
2017-Sep-11 15:27N 33°45' W 118°12'0 0.0
2017-Sep-11 14:57N 33°45' W 118°12'0 0.0
2017-Sep-11 14:30N 33°45' W 118°12'0 0.0
2017-Sep-11 14:00N 33°45' W 118°12'0 0.0
2017-Sep-11 13:24N 33°45' W 118°12'0 0.0
2017-Sep-11 13:00N 33°45' W 118°12'0 0.0
2017-Sep-11 12:30N 33°45' W 118°12'0 0.0
2017-Sep-11 12:00N 33°45' W 118°12'0 0.0
2017-Sep-11 11:30N 33°45' W 118°12'0 0.0
2017-Sep-11 11:00N 33°45' W 118°12'1 2.3
2017-Sep-11 10:30N 33°44' W 118°12'3 6.1
2017-Sep-11 10:01N 33°42' W 118°09'0 0.3
2017-Sep-11 09:30N 33°43' W 118°09'0 0.1
2017-Sep-11 09:00N 33°43' W 118°09'0 0.2
2017-Sep-11 08:30N 33°43' W 118°09'0 0.1
2017-Sep-11 08:00N 33°43' W 118°09'0 0.1
2017-Sep-11 07:30N 33°42' W 118°09'0 0.2
2017-Sep-11 06:54N 33°42' W 118°09'0 0.2
2017-Sep-11 06:30N 33°42' W 118°09'0 0.0
2017-Sep-11 06:00N 33°42' W 118°09'0 0.2
2017-Sep-11 05:30N 33°42' W 118°09'0 0.1
2017-Sep-11 04:57N 33°42' W 118°09'0 0.1
2017-Sep-11 04:30N 33°42' W 118°09'0 0.0
2017-Sep-11 04:00N 33°42' W 118°09'0 0.0
2017-Sep-11 03:30N 33°42' W 118°09'0 0.0
2017-Sep-11 03:00N 33°42' W 118°09'0 0.0
2017-Sep-11 02:30N 33°42' W 118°09'0 0.1
2017-Sep-11 02:00N 33°42' W 118°09'0 0.0
2017-Sep-11 01:30N 33°42' W 118°09'0 0.0
2017-Sep-11 01:00N 33°42' W 118°09'0 0.0
2017-Sep-11 00:30N 33°42' W 118°09'0 0.1
2017-Sep-11 00:00N 33°42' W 118°09'0 0.1
2017-Sep-10 23:24N 33°42' W 118°09'0 0.0
2017-Sep-10 23:00N 33°42' W 118°09'0 0.0
2017-Sep-10 22:30N 33°42' W 118°09'0 0.1
2017-Sep-10 22:00N 33°42' W 118°09'0 0.0
2017-Sep-10 21:30N 33°42' W 118°09'0 0.0
2017-Sep-10 20:54N 33°42' W 118°09'0 0.0
2017-Sep-10 20:30N 33°42' W 118°09'0 0.0
2017-Sep-10 20:00N 33°42' W 118°09'0 0.0
2017-Sep-10 19:30N 33°42' W 118°09'0 0.0
2017-Sep-10 19:00N 33°42' W 118°09'0 0.0
2017-Sep-10 18:30N 33°43' W 118°09'0 0.0
2017-Sep-10 18:00N 33°43' W 118°09'0 0.1
2017-Sep-10 17:30N 33°43' W 118°09'0 0.0
2017-Sep-10 17:00N 33°43' W 118°09'0 0.0
2017-Sep-10 16:30N 33°43' W 118°09'0 0.0
2017-Sep-10 15:57N 33°43' W 118°09'0 0.1
2017-Sep-10 15:27N 33°43' W 118°09'0 0.0
2017-Sep-10 15:00N 33°43' W 118°09'0 0.0
2017-Sep-10 14:00N 33°43' W 118°09'0 0.1
2017-Sep-10 13:30N 33°43' W 118°09'0 0.0
2017-Sep-10 13:00N 33°43' W 118°09'0 0.0
2017-Sep-10 12:30N 33°43' W 118°09'0 0.1
2017-Sep-10 12:00N 33°42' W 118°09'0 0.1
2017-Sep-10 11:30N 33°42' W 118°09'0 0.0
2017-Sep-10 11:00N 33°42' W 118°09'0 0.0
2017-Sep-10 10:30N 33°42' W 118°09'0 0.0
2017-Sep-10 10:00N 33°42' W 118°09'0 0.0
2017-Sep-10 09:30N 33°42' W 118°09'0 0.1
2017-Sep-10 09:00N 33°42' W 118°09'0 0.2
2017-Sep-10 08:30N 33°42' W 118°09'0 0.1
2017-Sep-10 08:00N 33°43' W 118°09'0 0.1
2017-Sep-10 07:30N 33°43' W 118°09'0 0.1
2017-Sep-10 07:00N 33°43' W 118°09'0 0.1
2017-Sep-10 06:30N 33°43' W 118°09'0 0.1
2017-Sep-10 06:00N 33°43' W 118°09'0 0.0
2017-Sep-10 05:30N 33°42' W 118°09'0 0.0
2017-Sep-10 05:00N 33°42' W 118°09'0 0.0
2017-Sep-10 04:30N 33°42' W 118°09'0 0.0
2017-Sep-10 03:57N 33°42' W 118°09'0 0.0
2017-Sep-10 03:30N 33°42' W 118°09'0 0.0
2017-Sep-10 03:00N 33°42' W 118°09'0 0.0
2017-Sep-10 02:30N 33°42' W 118°09'0 0.0
2017-Sep-10 02:00N 33°42' W 118°09'0 0.0
2017-Sep-10 01:30N 33°42' W 118°09'0 0.0
2017-Sep-10 01:00N 33°42' W 118°09'0 0.0
2017-Sep-10 00:30N 33°42' W 118°09'0 0.0
2017-Sep-10 00:00N 33°42' W 118°09'0 0.0
2017-Sep-09 23:30N 33°42' W 118°09'0 0.0
2017-Sep-09 23:00N 33°42' W 118°09'0 0.0
2017-Sep-09 22:30N 33°42' W 118°09'0 0.0
2017-Sep-09 22:00N 33°42' W 118°09'0 0.1
2017-Sep-09 21:30N 33°42' W 118°09'0 0.1
2017-Sep-09 21:00N 33°43' W 118°09'0 0.1
2017-Sep-09 20:30N 33°43' W 118°09'0 0.0
2017-Sep-09 20:00N 33°43' W 118°09'0 0.0
2017-Sep-09 19:30N 33°43' W 118°09'0 0.0
2017-Sep-09 19:00N 33°43' W 118°09'0 0.0
2017-Sep-09 18:30N 33°43' W 118°09'0 0.1
2017-Sep-09 18:00N 33°43' W 118°09'0 0.0
2017-Sep-09 17:30N 33°43' W 118°09'0 0.0
2017-Sep-09 17:00N 33°43' W 118°09'0 0.0
2017-Sep-09 16:30N 33°43' W 118°09'0 0.0
2017-Sep-09 16:00N 33°43' W 118°09'0 0.0
2017-Sep-09 15:30N 33°43' W 118°09'0 0.1
2017-Sep-09 15:00N 33°43' W 118°09'0 0.0
2017-Sep-09 14:30N 33°43' W 118°09'0 0.0
2017-Sep-09 14:00N 33°43' W 118°09'0 0.0
2017-Sep-09 13:30N 33°43' W 118°09'0 0.1
2017-Sep-09 13:00N 33°43' W 118°09'0 0.0
2017-Sep-09 12:30N 33°42' W 118°09'0 0.0
2017-Sep-09 12:00N 33°42' W 118°09'0 0.0
2017-Sep-09 11:30N 33°42' W 118°09'0 0.0
2017-Sep-09 11:00N 33°42' W 118°09'0 0.0
2017-Sep-09 10:30N 33°42' W 118°09'0 0.1
2017-Sep-09 10:00N 33°42' W 118°09'0 0.1
2017-Sep-09 09:30N 33°43' W 118°09'0 0.1
2017-Sep-09 09:00N 33°43' W 118°09'0 0.0
2017-Sep-09 08:30N 33°43' W 118°09'0 0.1
2017-Sep-09 08:00N 33°43' W 118°09'0 0.0
2017-Sep-09 07:30N 33°43' W 118°09'0 0.0
2017-Sep-09 07:00N 33°43' W 118°09'0 0.0
2017-Sep-09 06:30N 33°43' W 118°09'0 0.1
2017-Sep-09 06:00N 33°43' W 118°09'0 0.0
2017-Sep-09 05:30N 33°43' W 118°09'0 0.0
2017-Sep-09 05:00N 33°42' W 118°09'0 0.0
2017-Sep-09 04:30N 33°43' W 118°09'0 0.0
2017-Sep-09 04:00N 33°42' W 118°09'0 0.0
2017-Sep-09 03:30N 33°42' W 118°09'0 0.0
2017-Sep-09 03:00N 33°42' W 118°09'0 0.0
2017-Sep-09 02:30N 33°43' W 118°09'0 0.0
2017-Sep-09 02:00N 33°43' W 118°09'0 0.0
2017-Sep-09 01:30N 33°43' W 118°09'0 0.0
2017-Sep-09 01:00N 33°43' W 118°09'0 0.0
2017-Sep-09 00:30N 33°43' W 118°09'0 0.0
2017-Sep-09 00:00N 33°42' W 118°09'0 0.0
2017-Sep-08 23:30N 33°42' W 118°09'0 0.0
2017-Sep-08 22:57N 33°42' W 118°09'0 0.0
2017-Sep-08 22:30N 33°43' W 118°09'0 0.0
2017-Sep-08 22:00N 33°43' W 118°09'0 0.1
2017-Sep-08 21:30N 33°43' W 118°09'0 0.0
2017-Sep-08 21:00N 33°43' W 118°09'0 0.0
2017-Sep-08 20:30N 33°43' W 118°09'0 0.0
2017-Sep-08 20:00N 33°43' W 118°09'0 0.0
2017-Sep-08 19:30N 33°43' W 118°09'0 0.0
2017-Sep-08 18:57N 33°43' W 118°09'0 0.0
2017-Sep-08 18:30N 33°43' W 118°09'0 0.0
2017-Sep-08 18:00N 33°43' W 118°09'0 0.0
2017-Sep-08 17:30N 33°43' W 118°09'0 0.1
2017-Sep-08 16:57N 33°43' W 118°09'0 0.0
2017-Sep-08 16:30N 33°43' W 118°09'0 0.0
2017-Sep-08 16:00N 33°43' W 118°09'0 0.1
2017-Sep-08 15:30N 33°43' W 118°09'0 0.0
2017-Sep-08 14:57N 33°43' W 118°09'0 0.0
2017-Sep-08 14:30N 33°43' W 118°09'0 0.0
2017-Sep-08 14:00N 33°43' W 118°09'0 0.1
2017-Sep-08 13:30N 33°43' W 118°09'0 0.0
2017-Sep-08 13:00N 33°43' W 118°09'0 0.0
2017-Sep-08 12:30N 33°43' W 118°09'0 0.0
2017-Sep-08 12:00N 33°43' W 118°09'0 0.1
2017-Sep-08 11:29N 33°42' W 118°09'0 0.0
2017-Sep-08 11:00N 33°42' W 118°09'0 0.0
2017-Sep-08 10:30N 33°42' W 118°09'0 0.0
2017-Sep-08 10:00N 33°42' W 118°09'0 0.0
2017-Sep-08 09:30N 33°42' W 118°09'0 0.0
2017-Sep-08 08:59N 33°42' W 118°09'0 0.0
2017-Sep-08 08:27N 33°42' W 118°09'0 0.0
2017-Sep-08 08:00N 33°42' W 118°09'0 0.0
2017-Sep-08 07:30N 33°42' W 118°09'0 0.0
2017-Sep-08 07:00N 33°42' W 118°09'0 0.0
2017-Sep-08 06:30N 33°42' W 118°09'0 0.0
2017-Sep-08 05:54N 33°42' W 118°09'0 0.1
2017-Sep-08 05:26N 33°42' W 118°09'0 0.0
2017-Sep-08 05:00N 33°42' W 118°09'0 0.0
2017-Sep-08 04:30N 33°42' W 118°09'0 0.0
2017-Sep-08 04:00N 33°42' W 118°09'0 0.0
2017-Sep-08 03:30N 33°42' W 118°09'0 0.0
2017-Sep-08 03:00N 33°42' W 118°09'0 0.0
2017-Sep-08 02:30N 33°42' W 118°09'0 0.0
2017-Sep-08 01:57N 33°42' W 118°09'0 0.0
2017-Sep-08 01:30N 33°42' W 118°09'0 0.0
2017-Sep-08 01:00N 33°42' W 118°09'0 0.0
2017-Sep-08 00:29N 33°42' W 118°09'0 0.0
2017-Sep-07 23:59N 33°42' W 118°09'0 0.0
2017-Sep-07 23:27N 33°42' W 118°09'0 0.0
2017-Sep-07 22:59N 33°42' W 118°09'0 0.0
2017-Sep-07 22:29N 33°42' W 118°09'0 0.0
2017-Sep-07 21:59N 33°42' W 118°09'0 0.0
2017-Sep-07 21:29N 33°42' W 118°09'0 0.0
2017-Sep-07 20:59N 33°42' W 118°09'0 0.0
2017-Sep-07 20:29N 33°42' W 118°09'0 0.0
2017-Sep-07 19:59N 33°42' W 118°09'0 0.0
2017-Sep-07 19:29N 33°42' W 118°09'0 0.0
2017-Sep-07 18:59N 33°43' W 118°09'0 0.0
2017-Sep-07 18:29N 33°42' W 118°09'0 0.0
2017-Sep-07 17:59N 33°42' W 118°09'0 0.0
2017-Sep-07 17:29N 33°42' W 118°09'0 0.0
2017-Sep-07 16:59N 33°43' W 118°09'0 0.0
2017-Sep-07 16:29N 33°43' W 118°09'0 0.0
2017-Sep-07 15:59N 33°43' W 118°09'0 0.0
2017-Sep-07 15:29N 33°43' W 118°09'0 0.0
2017-Sep-07 14:59N 33°42' W 118°09'0 0.0
2017-Sep-07 14:29N 33°42' W 118°09'0 0.0
2017-Sep-07 13:59N 33°42' W 118°09'0 0.1
2017-Sep-07 13:30N 33°43' W 118°09'0 0.0
2017-Sep-07 12:56N 33°43' W 118°09'0 0.0
2017-Sep-07 12:29N 33°43' W 118°09'0 0.0
2017-Sep-07 11:59N 33°43' W 118°09'0 0.0
2017-Sep-07 11:29N 33°43' W 118°09'0 0.0
2017-Sep-07 10:59N 33°43' W 118°09'0 0.0
2017-Sep-07 10:29N 33°42' W 118°09'0 0.1
2017-Sep-07 09:59N 33°42' W 118°09'0 0.0
2017-Sep-07 09:29N 33°42' W 118°09'0 0.0
2017-Sep-07 08:59N 33°42' W 118°09'0 0.0
2017-Sep-07 08:29N 33°42' W 118°09'0 0.0
2017-Sep-07 07:59N 33°42' W 118°09'0 0.0
2017-Sep-07 07:29N 33°42' W 118°09'0 0.0
2017-Sep-07 06:59N 33°42' W 118°09'0 0.0
2017-Sep-07 06:29N 33°42' W 118°09'0 0.0
2017-Sep-07 05:59N 33°42' W 118°09'0 0.1
2017-Sep-07 05:29N 33°42' W 118°09'0 0.0
2017-Sep-07 04:59N 33°42' W 118°09'0 0.0
2017-Sep-07 04:26N 33°42' W 118°09'0 0.0
2017-Sep-07 03:59N 33°42' W 118°09'0 0.0
2017-Sep-07 03:29N 33°42' W 118°09'0 0.0
2017-Sep-07 02:59N 33°42' W 118°09'0 0.0
2017-Sep-07 02:29N 33°42' W 118°09'0 0.0
2017-Sep-07 01:59N 33°42' W 118°09'0 0.0
2017-Sep-07 01:29N 33°42' W 118°09'0 0.0
2017-Sep-07 00:59N 33°42' W 118°09'0 0.0
2017-Sep-07 00:29N 33°42' W 118°09'0 0.0
2017-Sep-06 23:59N 33°42' W 118°09'0 0.1
2017-Sep-06 23:29N 33°42' W 118°09'0 0.0
2017-Sep-06 22:59N 33°42' W 118°09'0 0.1
2017-Sep-06 22:29N 33°42' W 118°09'0 0.0
2017-Sep-06 21:59N 33°42' W 118°09'0 0.0
2017-Sep-06 21:29N 33°42' W 118°09'0 0.0
2017-Sep-06 20:59N 33°42' W 118°09'0 0.0
2017-Sep-06 20:29N 33°42' W 118°09'0 0.0
2017-Sep-06 19:59N 33°42' W 118°09'0 0.0
2017-Sep-06 19:29N 33°42' W 118°09'0 0.0
2017-Sep-06 18:59N 33°42' W 118°09'0 0.0
2017-Sep-06 18:26N 33°42' W 118°09'0 0.1
2017-Sep-06 17:59N 33°42' W 118°09'0 0.1
2017-Sep-06 17:29N 33°42' W 118°09'0 0.1
2017-Sep-06 16:59N 33°43' W 118°09'0 0.2
2017-Sep-06 16:29N 33°43' W 118°09'0 0.1
2017-Sep-06 15:53N 33°43' W 118°09'0 0.0
2017-Sep-06 15:29N 33°43' W 118°09'0 0.0
2017-Sep-06 14:59N 33°43' W 118°09'0 0.1
2017-Sep-06 14:29N 33°43' W 118°09'0 0.0
2017-Sep-06 13:59N 33°43' W 118°09'0 0.0
2017-Sep-06 13:29N 33°43' W 118°09'0 0.1
2017-Sep-06 12:59N 33°43' W 118°09'0 0.1
2017-Sep-06 12:29N 33°43' W 118°09'0 0.1
2017-Sep-06 11:59N 33°43' W 118°09'0 0.2
2017-Sep-06 11:29N 33°42' W 118°09'0 0.2
2017-Sep-06 10:59N 33°42' W 118°09'0 0.0
2017-Sep-06 10:29N 33°42' W 118°09'0 0.1
2017-Sep-06 09:53N 33°42' W 118°09'0 0.1
2017-Sep-06 09:26N 33°42' W 118°09'0 0.1
2017-Sep-06 08:59N 33°42' W 118°09'0 0.0
2017-Sep-06 08:29N 33°42' W 118°09'0 0.1
2017-Sep-06 07:59N 33°42' W 118°09'0 0.0
2017-Sep-06 07:29N 33°42' W 118°09'0 0.1
2017-Sep-06 06:59N 33°42' W 118°09'0 0.0
2017-Sep-06 06:29N 33°42' W 118°09'0 0.0
2017-Sep-06 05:59N 33°42' W 118°09'0 0.0
2017-Sep-06 05:29N 33°42' W 118°09'0 0.1
2017-Sep-06 04:59N 33°42' W 118°09'0 0.0
2017-Sep-06 04:29N 33°42' W 118°09'0 0.1
2017-Sep-06 03:59N 33°42' W 118°09'0 0.0
2017-Sep-06 03:29N 33°42' W 118°09'0 0.0
2017-Sep-06 02:59N 33°42' W 118°09'0 0.0
2017-Sep-06 02:29N 33°42' W 118°09'0 0.0
2017-Sep-06 01:59N 33°42' W 118°09'0 0.1
2017-Sep-06 01:29N 33°42' W 118°09'0 0.0
2017-Sep-06 00:59N 33°42' W 118°09'0 0.0
2017-Sep-06 00:26N 33°42' W 118°09'0 0.0
2017-Sep-05 23:59N 33°42' W 118°09'0 0.0
2017-Sep-05 23:29N 33°42' W 118°09'0 0.0
2017-Sep-05 22:59N 33°42' W 118°09'0 0.0
2017-Sep-05 22:29N 33°42' W 118°09'0 0.0
2017-Sep-05 21:59N 33°42' W 118°09'0 0.0
2017-Sep-05 21:29N 33°42' W 118°09'0 0.0
2017-Sep-05 20:59N 33°42' W 118°09'0 0.0
2017-Sep-05 20:23N 33°42' W 118°09'0 0.0
2017-Sep-05 19:59N 33°42' W 118°09'0 0.0
2017-Sep-05 19:29N 33°42' W 118°09'0 0.0
2017-Sep-05 18:59N 33°42' W 118°09'0 0.1
2017-Sep-05 18:26N 33°42' W 118°09'0 0.0
2017-Sep-05 17:59N 33°42' W 118°09'0 0.2
2017-Sep-05 17:26N 33°43' W 118°09'0 0.1
2017-Sep-05 16:59N 33°43' W 118°09'0 0.0
2017-Sep-05 16:29N 33°43' W 118°09'0 0.0
2017-Sep-05 15:59N 33°43' W 118°09'0 0.1
2017-Sep-05 15:29N 33°42' W 118°09'0 0.0
2017-Sep-05 14:56N 33°42' W 118°09'0 0.0
2017-Sep-05 14:29N 33°42' W 118°09'0 0.0
2017-Sep-05 13:56N 33°42' W 118°09'0 0.0
2017-Sep-05 13:29N 33°42' W 118°09'0 0.0
2017-Sep-05 12:53N 33°43' W 118°09'0 0.1
2017-Sep-05 12:29N 33°43' W 118°09'0 0.0
2017-Sep-05 11:59N 33°43' W 118°09'0 0.1
2017-Sep-05 11:29N 33°43' W 118°09'0 0.1
2017-Sep-05 10:50N 33°42' W 118°09'0 0.0
2017-Sep-05 10:26N 33°42' W 118°09'0 0.0
2017-Sep-05 09:59N 33°42' W 118°09'0 0.0
2017-Sep-05 09:29N 33°42' W 118°09'0 0.0
2017-Sep-05 08:59N 33°42' W 118°09'0 0.0
2017-Sep-05 08:26N 33°42' W 118°09'0 0.0
2017-Sep-05 07:59N 33°42' W 118°09'0 0.0
2017-Sep-05 07:29N 33°42' W 118°09'0 0.0
2017-Sep-05 06:59N 33°42' W 118°09'0 0.0
2017-Sep-05 06:29N 33°42' W 118°09'  
Track history (hours):
 
Tides and Currents Weather Stations Pressure Air Temp Water Temp Dewpoint Dewpoint Depression Visibility Wind Speed Wind Dir Waves Ship Positions

Vittoria

Last reported at 2017-Sep-15 06:04 UTC. Time now 2017-Sep-25 11:30 UTC.
Position N 34°53' W 126°33'.
Warning: this ship's position is 10 days out of date.

Length 211 m; draft 14.5 m.

Type: Cargo ship. MMSI: 354314000.

Date/timePositionNaut miles runAvg speedWind from/ knotsBaromVisibWave heightAir tempDewpointWater temp
2017-Sep-15 06:04N 34°53' W 126°33'312.5
2017-Sep-15 05:51N 34°52' W 126°30'412.6
2017-Sep-15 05:30N 34°51' W 126°26'912.4
2017-Sep-15 04:47N 34°47' W 126°15'412.4
2017-Sep-15 04:28N 34°46' W 126°11'612.4
2017-Sep-15 03:57N 34°43' W 126°04'612.4
2017-Sep-15 03:27N 34°41' W 125°57'1712.3
2017-Sep-15 02:03N 34°34' W 125°38'112.2
2017-Sep-15 02:00N 34°34' W 125°37'612.1
2017-Sep-15 01:30N 34°31' W 125°30'611.4
2017-Sep-15 01:00N 34°29' W 125°24'510.1
2017-Sep-15 00:30N 34°27' W 125°18'510.4
2017-Sep-15 00:00N 34°27' W 125°12'510.7
2017-Sep-14 23:30N 34°27' W 125°05'510.9
2017-Sep-14 23:00N 34°28' W 124°59'510.9
2017-Sep-14 22:30N 34°28' W 124°52'510.9
2017-Sep-14 22:00N 34°28' W 124°46'611.1
2017-Sep-14 21:29N 34°27' W 124°39'511.0
2017-Sep-14 21:00N 34°27' W 124°32'611.0
2017-Sep-14 20:27N 34°27' W 124°25'711.1
2017-Sep-14 19:51N 34°28' W 124°17'411.2
2017-Sep-14 19:30N 34°28' W 124°12'611.4
2017-Sep-14 18:56N 34°28' W 124°04'511.5
2017-Sep-14 18:30N 34°27' W 123°58'1111.4
2017-Sep-14 17:33N 34°27' W 123°45'111.3
2017-Sep-14 17:28N 34°27' W 123°44'511.2
2017-Sep-14 16:59N 34°27' W 123°37'510.8
2017-Sep-14 16:30N 34°28' W 123°31'610.8
2017-Sep-14 15:55N 34°28' W 123°23'410.9
2017-Sep-14 15:30N 34°28' W 123°18'610.7
2017-Sep-14 14:58N 34°28' W 123°11'510.7
2017-Sep-14 14:28N 34°28' W 123°05'510.7
2017-Sep-14 14:00N 34°28' W 122°58'510.4
2017-Sep-14 13:30N 34°28' W 122°52'710.7
2017-Sep-14 12:52N 34°27' W 122°44'410.5
2017-Sep-14 12:29N 34°27' W 122°39'510.4
2017-Sep-14 11:59N 34°27' W 122°33'510.2
2017-Sep-14 11:30N 34°28' W 122°27'610.3
2017-Sep-14 10:53N 34°28' W 122°19'410.1
2017-Sep-14 10:30N 34°27' W 122°14'510.2
2017-Sep-14 09:59N 34°27' W 122°08'1210.4
2017-Sep-14 08:51N 34°27' W 121°54'410.9
2017-Sep-14 08:30N 34°27' W 121°49'510.7
2017-Sep-14 08:00N 34°27' W 121°43'510.5
2017-Sep-14 07:30N 34°27' W 121°36'510.4
2017-Sep-14 07:00N 34°27' W 121°30'510.5
2017-Sep-14 06:30N 34°26' W 121°24'510.5
2017-Sep-14 06:00N 34°26' W 121°17'610.7
2017-Sep-14 05:29N 34°26' W 121°11'510.7
2017-Sep-14 04:59N 34°26' W 121°04'510.6
2017-Sep-14 04:30N 34°26' W 120°58'510.4
2017-Sep-14 04:00N 34°26' W 120°52'510.7
2017-Sep-14 03:30N 34°25' W 120°45'510.6
2017-Sep-14 03:00N 34°23' W 120°39'610.4
2017-Sep-14 02:28N 34°22' W 120°33'510.6
2017-Sep-14 01:57N 34°20' W 120°26'510.6
2017-Sep-14 01:30N 34°19' W 120°21'510.7
2017-Sep-14 01:00N 34°18' W 120°14'510.7
2017-Sep-14 00:30N 34°16' W 120°08'510.3
2017-Sep-13 23:59N 34°15' W 120°02'510.2
2017-Sep-13 23:30N 34°14' W 119°56'510.5
2017-Sep-13 23:00N 34°12' W 119°50'611.0
2017-Sep-13 22:30N 34°11' W 119°44'510.8
2017-Sep-13 22:00N 34°09' W 119°37'510.7
2017-Sep-13 21:30N 34°08' W 119°31'611.0
2017-Sep-13 21:00N 34°06' W 119°25'510.5
2017-Sep-13 20:29N 34°05' W 119°18'510.7
2017-Sep-13 20:00N 34°03' W 119°12'510.5
2017-Sep-13 19:30N 34°00' W 119°07'510.5
2017-Sep-13 19:00N 33°58' W 119°02'510.7
2017-Sep-13 18:30N 33°55' W 118°56'510.6
2017-Sep-13 18:00N 33°53' W 118°50'510.7
2017-Sep-13 17:30N 33°50' W 118°45'510.7
2017-Sep-13 17:00N 33°47' W 118°39'510.7
2017-Sep-13 16:30N 33°45' W 118°34'510.8
2017-Sep-13 16:00N 33°42' W 118°28'510.5
2017-Sep-13 15:30N 33°39' W 118°23'5 9.6
2017-Sep-13 15:00N 33°38' W 118°17'4 8.7
2017-Sep-13 14:30N 33°39' W 118°12'4 8.1
2017-Sep-13 14:00N 33°44' W 118°11'2 3.4
2017-Sep-13 13:30N 33°45' W 118°12'0 0.0
2017-Sep-13 12:45N 33°45' W 118°12'0 0.0
2017-Sep-13 12:27N 33°45' W 118°12'0 0.0
2017-Sep-13 11:51N 33°45' W 118°12'0 0.0
2017-Sep-13 11:21N 33°45' W 118°12'0 0.0
2017-Sep-13 10:57N 33°45' W 118°12'0 0.0
2017-Sep-13 10:27N 33°45' W 118°12'0 0.0
2017-Sep-13 09:57N 33°45' W 118°12'0 0.0
2017-Sep-13 09:27N 33°45' W 118°12'0 0.0
2017-Sep-13 08:57N 33°45' W 118°12'0 0.0
2017-Sep-13 08:27N 33°45' W 118°12'0 0.0
2017-Sep-13 07:57N 33°45' W 118°12'0 0.0
2017-Sep-13 07:15N 33°45' W 118°12'0 0.0
2017-Sep-13 06:57N 33°45' W 118°12'0 0.0
2017-Sep-13 06:30N 33°45' W 118°12'0 0.0
2017-Sep-13 05:27N 33°45' W 118°12'0 0.0
2017-Sep-13 04:57N 33°45' W 118°12'0 0.0
2017-Sep-13 04:27N 33°45' W 118°12'0 0.0
2017-Sep-13 03:57N 33°45' W 118°12'0 0.0
2017-Sep-13 03:27N 33°45' W 118°12'0 0.0
2017-Sep-13 02:57N 33°45' W 118°12'0 0.0
2017-Sep-13 02:30N 33°45' W 118°12'0 0.0
2017-Sep-13 02:00N 33°45' W 118°12'0 0.0
2017-Sep-13 01:30N 33°45' W 118°12'0 0.0
2017-Sep-13 00:57N 33°45' W 118°12'0 0.0
2017-Sep-13 00:30N 33°45' W 118°12'0 0.0
2017-Sep-13 00:00N 33°45' W 118°12'0 0.0
2017-Sep-12 23:30N 33°45' W 118°12'0 0.0
2017-Sep-12 23:00N 33°45' W 118°12'0 0.0
2017-Sep-12 22:27N 33°45' W 118°12'0 0.0
2017-Sep-12 22:00N 33°45' W 118°12'0 0.0
2017-Sep-12 21:30N 33°45' W 118°12'0 0.0
2017-Sep-12 21:00N 33°45' W 118°12'0 0.0
2017-Sep-12 20:30N 33°45' W 118°12'0 0.0
2017-Sep-12 19:57N 33°45' W 118°12'0 0.0
2017-Sep-12 19:30N 33°45' W 118°12'0 0.0
2017-Sep-12 19:00N 33°45' W 118°12'0 0.0
2017-Sep-12 18:27N 33°45' W 118°12'0 0.0
2017-Sep-12 17:57N 33°45' W 118°12'0 0.0
2017-Sep-12 17:27N 33°45' W 118°12'0 0.0
2017-Sep-12 16:57N 33°45' W 118°12'0 0.0
2017-Sep-12 16:30N 33°45' W 118°12'0 0.0
2017-Sep-12 15:57N 33°45' W 118°12'0 0.0
2017-Sep-12 15:27N 33°45' W 118°12'0 0.0
2017-Sep-12 14:57N 33°45' W 118°12'0 0.0
2017-Sep-12 14:27N 33°45' W 118°12'0 0.0
2017-Sep-12 13:57N 33°45' W 118°12'0 0.0
2017-Sep-12 13:30N 33°45' W 118°12'0 0.0
2017-Sep-12 12:57N 33°45' W 118°12'0 0.0
2017-Sep-12 12:30N 33°45' W 118°12'0 0.0
2017-Sep-12 12:00N 33°45' W 118°12'0 0.0
2017-Sep-12 11:27N 33°45' W 118°12'0 0.0
2017-Sep-12 10:57N 33°45' W 118°12'0 0.0
2017-Sep-12 10:30N 33°45' W 118°12'0 0.0
2017-Sep-12 09:57N 33°45' W 118°12'0 0.0
2017-Sep-12 09:30N 33°45' W 118°12'0 0.0
2017-Sep-12 09:00N 33°45' W 118°12'0 0.0
2017-Sep-12 08:27N 33°45' W 118°12'0 0.0
2017-Sep-12 08:00N 33°45' W 118°12'0 0.0
2017-Sep-12 07:30N 33°45' W 118°12'0 0.0
2017-Sep-12 07:00N 33°45' W 118°12'0 0.0
2017-Sep-12 06:30N 33°45' W 118°12'0 0.0
2017-Sep-12 06:00N 33°45' W 118°12'0 0.0
2017-Sep-12 05:30N 33°45' W 118°12'0 0.0
2017-Sep-12 05:00N 33°45' W 118°12'0 0.0
2017-Sep-12 04:30N 33°45' W 118°12'0 0.0
2017-Sep-12 04:00N 33°45' W 118°12'0 0.0
2017-Sep-12 03:30N 33°45' W 118°12'0 0.0
2017-Sep-12 03:00N 33°45' W 118°12'0 0.0
2017-Sep-12 02:30N 33°45' W 118°12'0 0.0
2017-Sep-12 02:00N 33°45' W 118°12'0 0.0
2017-Sep-12 01:30N 33°45' W 118°12'0 0.0
2017-Sep-12 00:57N 33°45' W 118°12'0 0.0
2017-Sep-12 00:30N 33°45' W 118°12'0 0.0
2017-Sep-12 00:00N 33°45' W 118°12'0 0.0
2017-Sep-11 23:30N 33°45' W 118°12'0 0.0
2017-Sep-11 23:00N 33°45' W 118°12'0 0.0
2017-Sep-11 22:30N 33°45' W 118°12'0 0.0
2017-Sep-11 22:00N 33°45' W 118°12'0 0.0
2017-Sep-11 21:30N 33°45' W 118°12'0 0.0
2017-Sep-11 21:00N 33°45' W 118°12'0 0.0
2017-Sep-11 20:30N 33°45' W 118°12'0 0.0
2017-Sep-11 20:00N 33°45' W 118°12'0 0.0
2017-Sep-11 19:30N 33°45' W 118°12'0 0.0
2017-Sep-11 19:00N 33°45' W 118°12'0 0.0
2017-Sep-11 18:30N 33°45' W 118°12'0 0.0
2017-Sep-11 18:00N 33°45' W 118°12'0 0.0
2017-Sep-11 17:30N 33°45' W 118°12'0 0.0
2017-Sep-11 16:51N 33°45' W 118°12'0 0.0
2017-Sep-11 16:30N 33°45' W 118°12'0 0.0
2017-Sep-11 16:00N 33°45' W 118°12'0 0.0
2017-Sep-11 15:27N 33°45' W 118°12'0 0.0
2017-Sep-11 14:57N 33°45' W 118°12'0 0.0
2017-Sep-11 14:30N 33°45' W 118°12'0 0.0
2017-Sep-11 14:00N 33°45' W 118°12'0 0.0
2017-Sep-11 13:24N 33°45' W 118°12'0 0.0
2017-Sep-11 13:00N 33°45' W 118°12'0 0.0
2017-Sep-11 12:30N 33°45' W 118°12'0 0.0
2017-Sep-11 12:00N 33°45' W 118°12'0 0.0
2017-Sep-11 11:30N 33°45' W 118°12'0 0.0
2017-Sep-11 11:00N 33°45' W 118°12'1 2.3
2017-Sep-11 10:30N 33°44' W 118°12'3 6.1
2017-Sep-11 10:01N 33°42' W 118°09'0 0.3
2017-Sep-11 09:30N 33°43' W 118°09'0 0.1
2017-Sep-11 09:00N 33°43' W 118°09'0 0.2
2017-Sep-11 08:30N 33°43' W 118°09'0 0.1
2017-Sep-11 08:00N 33°43' W 118°09'0 0.1
2017-Sep-11 07:30N 33°42' W 118°09'0 0.2
2017-Sep-11 06:54N 33°42' W 118°09'0 0.2
2017-Sep-11 06:30N 33°42' W 118°09'0 0.0
2017-Sep-11 06:00N 33°42' W 118°09'0 0.2
2017-Sep-11 05:30N 33°42' W 118°09'0 0.1
2017-Sep-11 04:57N 33°42' W 118°09'0 0.1
2017-Sep-11 04:30N 33°42' W 118°09'0 0.0
2017-Sep-11 04:00N 33°42' W 118°09'0 0.0
2017-Sep-11 03:30N 33°42' W 118°09'0 0.0
2017-Sep-11 03:00N 33°42' W 118°09'0 0.0
2017-Sep-11 02:30N 33°42' W 118°09'0 0.1
2017-Sep-11 02:00N 33°42' W 118°09'0 0.0
2017-Sep-11 01:30N 33°42' W 118°09'0 0.0
2017-Sep-11 01:00N 33°42' W 118°09'0 0.0
2017-Sep-11 00:30N 33°42' W 118°09'0 0.1
2017-Sep-11 00:00N 33°42' W 118°09'0 0.1
2017-Sep-10 23:24N 33°42' W 118°09'0 0.0
2017-Sep-10 23:00N 33°42' W 118°09'0 0.0
2017-Sep-10 22:30N 33°42' W 118°09'0 0.1
2017-Sep-10 22:00N 33°42' W 118°09'0 0.0
2017-Sep-10 21:30N 33°42' W 118°09'0 0.0
2017-Sep-10 20:54N 33°42' W 118°09'0 0.0
2017-Sep-10 20:30N 33°42' W 118°09'0 0.0
2017-Sep-10 20:00N 33°42' W 118°09'0 0.0
2017-Sep-10 19:30N 33°42' W 118°09'0 0.0
2017-Sep-10 19:00N 33°42' W 118°09'0 0.0
2017-Sep-10 18:30N 33°43' W 118°09'0 0.0
2017-Sep-10 18:00N 33°43' W 118°09'0 0.1
2017-Sep-10 17:30N 33°43' W 118°09'0 0.0
2017-Sep-10 17:00N 33°43' W 118°09'0 0.0
2017-Sep-10 16:30N 33°43' W 118°09'0 0.0
2017-Sep-10 15:57N 33°43' W 118°09'0 0.1
2017-Sep-10 15:27N 33°43' W 118°09'0 0.0
2017-Sep-10 15:00N 33°43' W 118°09'0 0.0
2017-Sep-10 14:00N 33°43' W 118°09'0 0.1
2017-Sep-10 13:30N 33°43' W 118°09'0 0.0
2017-Sep-10 13:00N 33°43' W 118°09'0 0.0
2017-Sep-10 12:30N 33°43' W 118°09'0 0.1
2017-Sep-10 12:00N 33°42' W 118°09'0 0.1
2017-Sep-10 11:30N 33°42' W 118°09'0 0.0
2017-Sep-10 11:00N 33°42' W 118°09'0 0.0
2017-Sep-10 10:30N 33°42' W 118°09'0 0.0
2017-Sep-10 10:00N 33°42' W 118°09'0 0.0
2017-Sep-10 09:30N 33°42' W 118°09'0 0.1
2017-Sep-10 09:00N 33°42' W 118°09'0 0.2
2017-Sep-10 08:30N 33°42' W 118°09'0 0.1
2017-Sep-10 08:00N 33°43' W 118°09'0 0.1
2017-Sep-10 07:30N 33°43' W 118°09'0 0.1
2017-Sep-10 07:00N 33°43' W 118°09'0 0.1
2017-Sep-10 06:30N 33°43' W 118°09'0 0.1
2017-Sep-10 06:00N 33°43' W 118°09'0 0.0
2017-Sep-10 05:30N 33°42' W 118°09'0 0.0
2017-Sep-10 05:00N 33°42' W 118°09'0 0.0
2017-Sep-10 04:30N 33°42' W 118°09'0 0.0
2017-Sep-10 03:57N 33°42' W 118°09'0 0.0
2017-Sep-10 03:30N 33°42' W 118°09'0 0.0
2017-Sep-10 03:00N 33°42' W 118°09'0 0.0
2017-Sep-10 02:30N 33°42' W 118°09'0 0.0
2017-Sep-10 02:00N 33°42' W 118°09'0 0.0
2017-Sep-10 01:30N 33°42' W 118°09'0 0.0
2017-Sep-10 01:00N 33°42' W 118°09'0 0.0
2017-Sep-10 00:30N 33°42' W 118°09'0 0.0
2017-Sep-10 00:00N 33°42' W 118°09'0 0.0
2017-Sep-09 23:30N 33°42' W 118°09'0 0.0
2017-Sep-09 23:00N 33°42' W 118°09'0 0.0
2017-Sep-09 22:30N 33°42' W 118°09'0 0.0
2017-Sep-09 22:00N 33°42' W 118°09'0 0.1
2017-Sep-09 21:30N 33°42' W 118°09'0 0.1
2017-Sep-09 21:00N 33°43' W 118°09'0 0.1
2017-Sep-09 20:30N 33°43' W 118°09'0 0.0
2017-Sep-09 20:00N 33°43' W 118°09'0 0.0
2017-Sep-09 19:30N 33°43' W 118°09'0 0.0
2017-Sep-09 19:00N 33°43' W 118°09'0 0.0
2017-Sep-09 18:30N 33°43' W 118°09'0 0.1
2017-Sep-09 18:00N 33°43' W 118°09'0 0.0
2017-Sep-09 17:30N 33°43' W 118°09'0 0.0
2017-Sep-09 17:00N 33°43' W 118°09'0 0.0
2017-Sep-09 16:30N 33°43' W 118°09'0 0.0
2017-Sep-09 16:00N 33°43' W 118°09'0 0.0
2017-Sep-09 15:30N 33°43' W 118°09'0 0.1
2017-Sep-09 15:00N 33°43' W 118°09'0 0.0
2017-Sep-09 14:30N 33°43' W 118°09'0 0.0
2017-Sep-09 14:00N 33°43' W 118°09'0 0.0
2017-Sep-09 13:30N 33°43' W 118°09'0 0.1
2017-Sep-09 13:00N 33°43' W 118°09'0 0.0
2017-Sep-09 12:30N 33°42' W 118°09'0 0.0
2017-Sep-09 12:00N 33°42' W 118°09'0 0.0
2017-Sep-09 11:30N 33°42' W 118°09'0 0.0
2017-Sep-09 11:00N 33°42' W 118°09'0 0.0
2017-Sep-09 10:30N 33°42' W 118°09'0 0.1
2017-Sep-09 10:00N 33°42' W 118°09'0 0.1
2017-Sep-09 09:30N 33°43' W 118°09'0 0.1
2017-Sep-09 09:00N 33°43' W 118°09'0 0.0
2017-Sep-09 08:30N 33°43' W 118°09'0 0.1
2017-Sep-09 08:00N 33°43' W 118°09'0 0.0
2017-Sep-09 07:30N 33°43' W 118°09'0 0.0
2017-Sep-09 07:00N 33°43' W 118°09'0 0.0
2017-Sep-09 06:30N 33°43' W 118°09'0 0.1
2017-Sep-09 06:00N 33°43' W 118°09'0 0.0
2017-Sep-09 05:30N 33°43' W 118°09'0 0.0
2017-Sep-09 05:00N 33°42' W 118°09'0 0.0
2017-Sep-09 04:30N 33°43' W 118°09'0 0.0
2017-Sep-09 04:00N 33°42' W 118°09'0 0.0
2017-Sep-09 03:30N 33°42' W 118°09'0 0.0
2017-Sep-09 03:00N 33°42' W 118°09'0 0.0
2017-Sep-09 02:30N 33°43' W 118°09'0 0.0
2017-Sep-09 02:00N 33°43' W 118°09'0 0.0
2017-Sep-09 01:30N 33°43' W 118°09'0 0.0
2017-Sep-09 01:00N 33°43' W 118°09'0 0.0
2017-Sep-09 00:30N 33°43' W 118°09'0 0.0
2017-Sep-09 00:00N 33°42' W 118°09'0 0.0
2017-Sep-08 23:30N 33°42' W 118°09'0 0.0
2017-Sep-08 22:57N 33°42' W 118°09'0 0.0
2017-Sep-08 22:30N 33°43' W 118°09'0 0.0
2017-Sep-08 22:00N 33°43' W 118°09'0 0.1
2017-Sep-08 21:30N 33°43' W 118°09'0 0.0
2017-Sep-08 21:00N 33°43' W 118°09'0 0.0
2017-Sep-08 20:30N 33°43' W 118°09'0 0.0
2017-Sep-08 20:00N 33°43' W 118°09'0 0.0
2017-Sep-08 19:30N 33°43' W 118°09'0 0.0
2017-Sep-08 18:57N 33°43' W 118°09'0 0.0
2017-Sep-08 18:30N 33°43' W 118°09'0 0.0
2017-Sep-08 18:00N 33°43' W 118°09'0 0.0
2017-Sep-08 17:30N 33°43' W 118°09'0 0.1
2017-Sep-08 16:57N 33°43' W 118°09'0 0.0
2017-Sep-08 16:30N 33°43' W 118°09'0 0.0
2017-Sep-08 16:00N 33°43' W 118°09'0 0.1
2017-Sep-08 15:30N 33°43' W 118°09'0 0.0
2017-Sep-08 14:57N 33°43' W 118°09'0 0.0
2017-Sep-08 14:30N 33°43' W 118°09'0 0.0
2017-Sep-08 14:00N 33°43' W 118°09'0 0.1
2017-Sep-08 13:30N 33°43' W 118°09'0 0.0
2017-Sep-08 13:00N 33°43' W 118°09'0 0.0
2017-Sep-08 12:30N 33°43' W 118°09'0 0.0
2017-Sep-08 12:00N 33°43' W 118°09'0 0.1
2017-Sep-08 11:29N 33°42' W 118°09'0 0.0
2017-Sep-08 11:00N 33°42' W 118°09'0 0.0
2017-Sep-08 10:30N 33°42' W 118°09'0 0.0
2017-Sep-08 10:00N 33°42' W 118°09'0 0.0
2017-Sep-08 09:30N 33°42' W 118°09'0 0.0
2017-Sep-08 08:59N 33°42' W 118°09'0 0.0
2017-Sep-08 08:27N 33°42' W 118°09'0 0.0
2017-Sep-08 08:00N 33°42' W 118°09'0 0.0
2017-Sep-08 07:30N 33°42' W 118°09'0 0.0
2017-Sep-08 07:00N 33°42' W 118°09'0 0.0
2017-Sep-08 06:30N 33°42' W 118°09'0 0.0
2017-Sep-08 05:54N 33°42' W 118°09'0 0.1
2017-Sep-08 05:26N 33°42' W 118°09'0 0.0
2017-Sep-08 05:00N 33°42' W 118°09'0 0.0
2017-Sep-08 04:30N 33°42' W 118°09'0 0.0
2017-Sep-08 04:00N 33°42' W 118°09'0 0.0
2017-Sep-08 03:30N 33°42' W 118°09'0 0.0
2017-Sep-08 03:00N 33°42' W 118°09'0 0.0
2017-Sep-08 02:30N 33°42' W 118°09'0 0.0
2017-Sep-08 01:57N 33°42' W 118°09'0 0.0
2017-Sep-08 01:30N 33°42' W 118°09'0 0.0
2017-Sep-08 01:00N 33°42' W 118°09'0 0.0
2017-Sep-08 00:29N 33°42' W 118°09'0 0.0
2017-Sep-07 23:59N 33°42' W 118°09'0 0.0
2017-Sep-07 23:27N 33°42' W 118°09'0 0.0
2017-Sep-07 22:59N 33°42' W 118°09'0 0.0
2017-Sep-07 22:29N 33°42' W 118°09'0 0.0
2017-Sep-07 21:59N 33°42' W 118°09'0 0.0
2017-Sep-07 21:29N 33°42' W 118°09'0 0.0
2017-Sep-07 20:59N 33°42' W 118°09'0 0.0
2017-Sep-07 20:29N 33°42' W 118°09'0 0.0
2017-Sep-07 19:59N 33°42' W 118°09'0 0.0
2017-Sep-07 19:29N 33°42' W 118°09'0 0.0
2017-Sep-07 18:59N 33°43' W 118°09'0 0.0
2017-Sep-07 18:29N 33°42' W 118°09'0 0.0
2017-Sep-07 17:59N 33°42' W 118°09'0 0.0
2017-Sep-07 17:29N 33°42' W 118°09'0 0.0
2017-Sep-07 16:59N 33°43' W 118°09'0 0.0
2017-Sep-07 16:29N 33°43' W 118°09'0 0.0
2017-Sep-07 15:59N 33°43' W 118°09'0 0.0
2017-Sep-07 15:29N 33°43' W 118°09'0 0.0
2017-Sep-07 14:59N 33°42' W 118°09'0 0.0
2017-Sep-07 14:29N 33°42' W 118°09'0 0.0
2017-Sep-07 13:59N 33°42' W 118°09'0 0.1
2017-Sep-07 13:30N 33°43' W 118°09'0 0.0
2017-Sep-07 12:56N 33°43' W 118°09'0 0.0
2017-Sep-07 12:29N 33°43' W 118°09'0 0.0
2017-Sep-07 11:59N 33°43' W 118°09'0 0.0
2017-Sep-07 11:29N 33°43' W 118°09'0 0.0
2017-Sep-07 10:59N 33°43' W 118°09'0 0.0
2017-Sep-07 10:29N 33°42' W 118°09'0 0.1
2017-Sep-07 09:59N 33°42' W 118°09'0 0.0
2017-Sep-07 09:29N 33°42' W 118°09'0 0.0
2017-Sep-07 08:59N 33°42' W 118°09'0 0.0
2017-Sep-07 08:29N 33°42' W 118°09'0 0.0
2017-Sep-07 07:59N 33°42' W 118°09'0 0.0
2017-Sep-07 07:29N 33°42' W 118°09'0 0.0
2017-Sep-07 06:59N 33°42' W 118°09'0 0.0
2017-Sep-07 06:29N 33°42' W 118°09'0 0.0
2017-Sep-07 05:59N 33°42' W 118°09'0 0.1
2017-Sep-07 05:29N 33°42' W 118°09'0 0.0
2017-Sep-07 04:59N 33°42' W 118°09'0 0.0
2017-Sep-07 04:26N 33°42' W 118°09'0 0.0
2017-Sep-07 03:59N 33°42' W 118°09'0 0.0
2017-Sep-07 03:29N 33°42' W 118°09'0 0.0
2017-Sep-07 02:59N 33°42' W 118°09'0 0.0
2017-Sep-07 02:29N 33°42' W 118°09'0 0.0
2017-Sep-07 01:59N 33°42' W 118°09'0 0.0
2017-Sep-07 01:29N 33°42' W 118°09'0 0.0
2017-Sep-07 00:59N 33°42' W 118°09'0 0.0
2017-Sep-07 00:29N 33°42' W 118°09'0 0.0
2017-Sep-06 23:59N 33°42' W 118°09'0 0.1
2017-Sep-06 23:29N 33°42' W 118°09'0 0.0
2017-Sep-06 22:59N 33°42' W 118°09'0 0.1
2017-Sep-06 22:29N 33°42' W 118°09'0 0.0
2017-Sep-06 21:59N 33°42' W 118°09'0 0.0
2017-Sep-06 21:29N 33°42' W 118°09'0 0.0
2017-Sep-06 20:59N 33°42' W 118°09'0 0.0
2017-Sep-06 20:29N 33°42' W 118°09'0 0.0
2017-Sep-06 19:59N 33°42' W 118°09'0 0.0
2017-Sep-06 19:29N 33°42' W 118°09'0 0.0
2017-Sep-06 18:59N 33°42' W 118°09'0 0.0
2017-Sep-06 18:26N 33°42' W 118°09'0 0.1
2017-Sep-06 17:59N 33°42' W 118°09'0 0.1
2017-Sep-06 17:29N 33°42' W 118°09'0 0.1
2017-Sep-06 16:59N 33°43' W 118°09'0 0.2
2017-Sep-06 16:29N 33°43' W 118°09'0 0.1
2017-Sep-06 15:53N 33°43' W 118°09'0 0.0
2017-Sep-06 15:29N 33°43' W 118°09'0 0.0
2017-Sep-06 14:59N 33°43' W 118°09'0 0.1
2017-Sep-06 14:29N 33°43' W 118°09'0 0.0
2017-Sep-06 13:59N 33°43' W 118°09'0 0.0
2017-Sep-06 13:29N 33°43' W 118°09'0 0.1
2017-Sep-06 12:59N 33°43' W 118°09'0 0.1
2017-Sep-06 12:29N 33°43' W 118°09'0 0.1
2017-Sep-06 11:59N 33°43' W 118°09'0 0.2
2017-Sep-06 11:29N 33°42' W 118°09'0 0.2
2017-Sep-06 10:59N 33°42' W 118°09'0 0.0
2017-Sep-06 10:29N 33°42' W 118°09'0 0.1
2017-Sep-06 09:53N 33°42' W 118°09'0 0.1
2017-Sep-06 09:26N 33°42' W 118°09'0 0.1
2017-Sep-06 08:59N 33°42' W 118°09'0 0.0
2017-Sep-06 08:29N 33°42' W 118°09'0 0.1
2017-Sep-06 07:59N 33°42' W 118°09'0 0.0
2017-Sep-06 07:29N 33°42' W 118°09'0 0.1
2017-Sep-06 06:59N 33°42' W 118°09'0 0.0
2017-Sep-06 06:29N 33°42' W 118°09'0 0.0
2017-Sep-06 05:59N 33°42' W 118°09'0 0.0
2017-Sep-06 05:29N 33°42' W 118°09'0 0.1
2017-Sep-06 04:59N 33°42' W 118°09'0 0.0
2017-Sep-06 04:29N 33°42' W 118°09'0 0.1
2017-Sep-06 03:59N 33°42' W 118°09'0 0.0
2017-Sep-06 03:29N 33°42' W 118°09'0 0.0
2017-Sep-06 02:59N 33°42' W 118°09'0 0.0
2017-Sep-06 02:29N 33°42' W 118°09'0 0.0
2017-Sep-06 01:59N 33°42' W 118°09'0 0.1
2017-Sep-06 01:29N 33°42' W 118°09'0 0.0
2017-Sep-06 00:59N 33°42' W 118°09'0 0.0
2017-Sep-06 00:26N 33°42' W 118°09'0 0.0
2017-Sep-05 23:59N 33°42' W 118°09'0 0.0
2017-Sep-05 23:29N 33°42' W 118°09'0 0.0
2017-Sep-05 22:59N 33°42' W 118°09'0 0.0
2017-Sep-05 22:29N 33°42' W 118°09'0 0.0
2017-Sep-05 21:59N 33°42' W 118°09'0 0.0
2017-Sep-05 21:29N 33°42' W 118°09'0 0.0
2017-Sep-05 20:59N 33°42' W 118°09'0 0.0
2017-Sep-05 20:23N 33°42' W 118°09'0 0.0
2017-Sep-05 19:59N 33°42' W 118°09'0 0.0
2017-Sep-05 19:29N 33°42' W 118°09'0 0.0
2017-Sep-05 18:59N 33°42' W 118°09'0 0.1
2017-Sep-05 18:26N 33°42' W 118°09'0 0.0
2017-Sep-05 17:59N 33°42' W 118°09'0 0.2
2017-Sep-05 17:26N 33°43' W 118°09'0 0.1
2017-Sep-05 16:59N 33°43' W 118°09'0 0.0
2017-Sep-05 16:29N 33°43' W 118°09'0 0.0
2017-Sep-05 15:59N 33°43' W 118°09'0 0.1
2017-Sep-05 15:29N 33°42' W 118°09'0 0.0
2017-Sep-05 14:56N 33°42' W 118°09'0 0.0
2017-Sep-05 14:29N 33°42' W 118°09'0 0.0
2017-Sep-05 13:56N 33°42' W 118°09'0 0.0
2017-Sep-05 13:29N 33°42' W 118°09'0 0.0
2017-Sep-05 12:53N 33°43' W 118°09'0 0.1
2017-Sep-05 12:29N 33°43' W 118°09'0 0.0
2017-Sep-05 11:59N 33°43' W 118°09'0 0.1
2017-Sep-05 11:29N 33°43' W 118°09'0 0.1
2017-Sep-05 10:50N 33°42' W 118°09'0 0.0
2017-Sep-05 10:26N 33°42' W 118°09'0 0.0
2017-Sep-05 09:59N 33°42' W 118°09'0 0.0
2017-Sep-05 09:29N 33°42' W 118°09'0 0.0
2017-Sep-05 08:59N 33°42' W 118°09'0 0.0
2017-Sep-05 08:26N 33°42' W 118°09'0 0.0
2017-Sep-05 07:59N 33°42' W 118°09'0 0.0
2017-Sep-05 07:29N 33°42' W 118°09'0 0.0
2017-Sep-05 06:59N 33°42' W 118°09'0 0.0
2017-Sep-05 06:29N 33°42' W 118°09'  

Dump ship's entire track history